Time;durP1;ratioP1;P1;durP2;ratioP2;P2;SDS_P1;SDS_P2;PMS_P1;PMS_P2;Temp;Humidity;BMP_temperature;BMP_pressure;BME280_temperature;BME280_humidity;BME280_pressure;Samples;Min_cycle;Max_cycle;Signal;HPM_P1;HPM_P2
2023/04/06 00:00:57;;;;;;;10.72;4.67;;;;;;;0.31;56.04;100421.61;1480575;88;22314;-86
2023/04/06 00:03:24;;;;;;;8.78;4.92;;;;;;;0.30;56.27;100414.73;1437861;91;21442;-83
2023/04/06 00:05:51;;;;;;;12.20;5.08;;;;;;;0.31;56.22;100415.94;1484014;88;21456;-85
2023/04/06 00:08:17;;;;;;;9.90;5.70;;;;;;;0.33;56.11;100415.40;1477375;88;21426;-86
2023/04/06 00:10:43;;;;;;;19.20;6.08;;;;;;;0.31;56.61;100408.12;1429730;91;21690;-87
2023/04/06 00:13:10;;;;;;;7.35;4.55;;;;;;;0.28;56.44;100405.69;1471649;88;21604;-87
2023/04/06 00:15:36;;;;;;;9.95;5.83;;;;;;;0.28;56.37;100411.36;1437046;91;21665;-85
2023/04/06 00:18:03;;;;;;;8.33;5.20;;;;;;;0.32;56.53;100409.82;1481322;88;21485;-86
2023/04/06 00:20:30;;;;;;;9.88;5.72;;;;;;;0.29;56.70;100412.59;1489803;88;22389;-87
2023/04/06 00:22:56;;;;;;;8.63;4.70;;;;;;;0.27;56.82;100406.63;1473071;88;22378;-87
2023/04/06 00:25:23;;;;;;;10.30;5.45;;;;;;;0.26;56.77;100404.09;1467736;88;21632;-84
2023/04/06 00:27:49;;;;;;;11.48;4.75;;;;;;;0.25;56.68;100404.55;1475299;88;23355;-85
2023/04/06 00:30:15;;;;;;;9.33;5.17;;;;;;;0.25;56.99;100408.45;1437292;91;21616;-87
2023/04/06 00:32:42;;;;;;;11.83;5.95;;;;;;;0.22;57.12;100402.95;1477548;88;22413;-86
2023/04/06 00:35:09;;;;;;;11.38;4.87;;;;;;;0.24;57.27;100398.14;1477321;88;22335;-84
2023/04/06 00:37:35;;;;;;;8.60;5.33;;;;;;;0.17;57.24;100388.50;1430338;91;21738;-85
2023/04/06 00:40:02;;;;;;;10.50;4.97;;;;;;;0.21;57.27;100393.47;1483441;88;21485;-88
2023/04/06 00:42:29;;;;;;;11.57;6.28;;;;;;;0.16;57.34;100385.53;1433394;91;21516;-87
2023/04/06 00:44:58;;;;;;;10.10;6.17;;;;;;;0.26;57.52;100390.63;1475553;88;21641;-86
2023/04/06 00:47:25;;;;;;;12.45;6.42;;;;;;;0.26;57.26;100379.36;1486660;88;21539;-86
2023/04/06 00:49:53;;;;;;;11.78;4.97;;;;;;;0.24;57.64;100377.32;1480596;88;21593;-89
2023/04/06 00:52:20;;;;;;;7.87;4.67;;;;;;;0.19;57.66;100375.78;1428375;91;21427;-86
2023/04/06 00:54:47;;;;;;;10.15;5.33;;;;;;;0.17;57.81;100377.66;1479068;88;21411;-88
2023/04/06 00:57:14;;;;;;;9.63;4.97;;;;;;;0.17;57.96;100372.45;1477651;88;21599;-88
2023/04/06 00:59:42;;;;;;;9.18;4.85;;;;;;;0.16;57.88;100375.95;1483084;88;21449;-86
2023/04/06 01:02:09;;;;;;;9.93;5.45;;;;;;;0.19;58.10;100374.95;1457562;88;21658;-84
2023/04/06 01:04:35;;;;;;;11.12;5.83;;;;;;;0.21;57.90;100371.34;1428368;91;21508;-84
2023/04/06 01:07:02;;;;;;;8.40;5.62;;;;;;;0.18;58.13;100367.61;1486554;88;21508;-87
2023/04/06 01:09:32;;;;;;;10.50;5.15;;;;;;;0.16;58.16;100369.45;1479738;88;21612;-86
2023/04/06 01:11:59;;;;;;;8.50;4.55;;;;;;;0.13;58.34;100371.38;1430405;91;21383;-87
2023/04/06 01:14:26;;;;;;;13.48;5.12;;;;;;;0.13;58.62;100370.08;1486221;88;21471;-85
2023/04/06 01:16:53;;;;;;;7.95;4.87;;;;;;;0.12;58.33;100367.11;1483591;88;21677;-87
2023/04/06 01:19:20;;;;;;;11.95;5.53;;;;;;;0.14;58.44;100363.47;1477379;88;22433;-88
2023/04/06 01:21:49;;;;;;;7.47;4.85;;;;;;;0.12;58.37;100359.30;1479301;88;21478;-88
2023/04/06 01:24:15;;;;;;;11.57;5.60;;;;;;;0.14;58.31;100363.94;1473296;88;21596;-89
2023/04/06 01:26:44;;;;;;;9.40;5.17;;;;;;;0.12;58.31;100355.39;1435726;91;21489;-87
2023/04/06 01:29:10;;;;;;;9.05;4.97;;;;;;;0.20;58.09;100348.85;1481959;88;21456;-86
2023/04/06 01:31:37;;;;;;;8.58;4.70;;;;;;;0.17;58.49;100344.25;1481446;88;21672;-88
2023/04/06 01:34:04;;;;;;;9.68;5.95;;;;;;;0.11;58.34;100357.13;1455180;88;21478;-84
2023/04/06 01:36:30;;;;;;;6.83;4.28;;;;;;;0.16;58.00;100355.59;1479761;88;21456;-87
2023/04/06 01:38:57;;;;;;;8.75;5.20;;;;;;;0.18;58.34;100347.25;1478968;88;21478;-87
2023/04/06 01:41:23;;;;;;;12.13;5.22;;;;;;;0.19;58.18;100334.61;1483162;88;21522;-86
2023/04/06 01:43:54;;;;;;;8.10;4.75;;;;;;;0.16;58.23;100338.68;1487767;88;21440;-86
2023/04/06 01:46:18;;;;;;;7.00;4.47;;;;;;;0.13;58.19;100334.95;1477737;88;21522;-80
2023/04/06 01:48:44;;;;;;;8.83;4.72;;;;;;;0.18;58.09;100329.03;1478246;88;21848;-84
2023/04/06 01:51:11;;;;;;;7.28;4.33;;;;;;;0.17;58.01;100324.30;1514062;87;21463;-80
2023/04/06 01:53:37;;;;;;;11.18;5.50;;;;;;;0.15;57.71;100324.00;1444011;91;22268;-83
2023/04/06 01:56:04;;;;;;;8.98;5.33;;;;;;;0.16;57.95;100318.69;1486576;88;21507;-86
2023/04/06 01:58:31;;;;;;;9.23;5.25;;;;;;;0.20;58.03;100314.15;1481685;88;21805;-86
2023/04/06 02:00:57;;;;;;;18.98;4.60;;;;;;;0.22;57.90;100310.55;1480918;88;22351;-87
2023/04/06 02:03:24;;;;;;;9.70;5.62;;;;;;;0.23;57.91;100307.47;1429816;91;22271;-86
2023/04/06 02:05:50;;;;;;;9.43;4.35;;;;;;;0.22;57.99;100312.31;1480326;88;22513;-87
2023/04/06 02:08:17;;;;;;;11.45;5.20;;;;;;;0.23;57.83;100306.17;1480901;88;21433;-86
2023/04/06 02:10:43;;;;;;;9.48;5.22;;;;;;;0.27;58.09;100307.70;1438866;91;21671;-86
2023/04/06 02:13:09;;;;;;;7.97;4.70;;;;;;;0.30;58.09;100303.62;1482326;88;21582;-85
2023/04/06 02:15:36;;;;;;;7.53;4.65;;;;;;;0.32;58.04;100297.87;1483592;88;21419;-85
2023/04/06 02:18:02;;;;;;;10.32;5.15;;;;;;;0.33;57.82;100298.70;1435569;91;21531;-82
2023/04/06 02:20:30;;;;;;;10.60;5.70;;;;;;;0.34;58.13;100300.38;1473565;88;21522;-84
2023/04/06 02:23:00;;;;;;;9.35;5.72;;;;;;;0.36;58.12;100296.77;1429442;91;21472;-84
2023/04/06 02:25:26;;;;;;;8.15;5.25;;;;;;;0.40;58.29;100293.52;1478643;88;22451;-84
2023/04/06 02:27:53;;;;;;;8.50;5.58;;;;;;;0.43;58.14;100290.74;1412200;91;21900;-85
2023/04/06 02:30:19;;;;;;;14.85;5.78;;;;;;;0.45;58.23;100291.03;1474784;88;21626;-84
2023/04/06 02:32:46;;;;;;;11.43;5.55;;;;;;;0.44;57.72;100291.98;1433844;91;21589;-84
2023/04/06 02:35:12;;;;;;;10.18;6.33;;;;;;;0.49;57.92;100293.47;1479457;88;21434;-83
2023/04/06 02:37:39;;;;;;;10.78;5.50;;;;;;;0.52;58.10;100286.78;1437930;91;21516;-86
2023/04/06 02:40:06;;;;;;;8.90;5.28;;;;;;;0.50;57.72;100291.26;1477979;88;21434;-87
2023/04/06 02:42:33;;;;;;;13.88;5.60;;;;;;;0.50;57.70;100284.75;1440778;91;21561;-86
2023/04/06 02:44:59;;;;;;;14.18;7.10;;;;;;;0.55;57.96;100290.55;1478030;88;21441;-86
2023/04/06 02:47:26;;;;;;;12.00;5.90;;;;;;;0.56;57.97;100285.70;1433191;91;21405;-84
2023/04/06 02:49:52;;;;;;;12.60;7.08;;;;;;;0.52;57.99;100285.48;1473049;88;21603;-86
2023/04/06 02:52:18;;;;;;;10.78;5.25;;;;;;;0.53;58.04;100287.18;1475642;88;21440;-87
2023/04/06 02:54:45;;;;;;;10.98;4.45;;;;;;;0.52;58.14;100284.17;1430242;91;21539;-86
2023/04/06 02:57:11;;;;;;;12.95;6.87;;;;;;;0.54;58.20;100279.73;1473529;88;21360;-87
2023/04/06 02:59:38;;;;;;;11.12;5.70;;;;;;;0.56;58.03;100277.42;1429505;91;21634;-86
2023/04/06 03:02:04;;;;;;;9.90;5.33;;;;;;;0.58;58.09;100275.58;1474997;88;21382;-87
2023/04/06 03:04:30;;;;;;;10.80;6.15;;;;;;;0.56;57.85;100272.67;1474457;88;21568;-88
2023/04/06 03:06:57;;;;;;;10.90;5.87;;;;;;;0.61;58.23;100277.17;1416074;91;21463;-86
2023/04/06 03:09:23;;;;;;;11.08;5.20;;;;;;;0.58;57.77;100276.05;1412545;91;21486;-88
2023/04/06 03:11:49;;;;;;;10.10;5.12;;;;;;;0.56;58.26;100271.37;1481821;88;21663;-88
2023/04/06 03:14:21;;;;;;;10.68;5.80;;;;;;;0.56;57.61;100273.52;1433591;91;21634;-88
2023/04/06 03:16:44;;;;;;;14.07;7.25;;;;;;;0.60;58.11;100274.17;1480490;88;21463;-86
2023/04/06 03:19:10;;;;;;;10.68;5.72;;;;;;;0.61;57.69;100266.75;1412395;91;22353;-87
2023/04/06 03:21:37;;;;;;;11.03;5.72;;;;;;;0.53;58.00;100270.25;1482675;88;22513;-86
2023/04/06 03:24:04;;;;;;;13.58;6.78;;;;;;;0.65;57.88;100270.38;1480763;88;22298;-85
2023/04/06 03:26:31;;;;;;;17.25;7.15;;;;;;;0.64;57.76;100273.09;1433936;91;21428;-86
2023/04/06 03:28:57;;;;;;;16.32;8.23;;;;;;;0.61;57.66;100273.27;1479102;88;21585;-85
2023/04/06 03:31:24;;;;;;;28.10;8.63;;;;;;;0.60;57.51;100270.26;1479738;88;21611;-85
2023/04/06 03:33:50;;;;;;;11.63;6.25;;;;;;;0.66;57.60;100269.91;1491213;88;21523;-88
2023/04/06 03:36:16;;;;;;;13.58;6.17;;;;;;;0.57;57.25;100273.88;1460808;88;21575;-84
2023/04/06 03:38:43;;;;;;;15.75;7.62;;;;;;;0.65;57.45;100266.94;1476194;88;21567;-86
2023/04/06 03:41:09;;;;;;;13.95;6.97;;;;;;;0.64;57.34;100267.87;1453674;89;22380;-87
2023/04/06 03:43:36;;;;;;;17.10;6.72;;;;;;;0.60;57.40;100267.19;1468028;88;23293;-84
2023/04/06 03:46:02;;;;;;;18.25;6.65;;;;;;;0.60;57.17;100263.75;1475966;88;21406;-87
2023/04/06 03:48:28;;;;;;;10.45;6.10;;;;;;;0.56;57.33;100266.16;1415610;92;21415;-87
2023/04/06 03:50:55;;;;;;;13.10;6.95;;;;;;;0.60;57.35;100270.26;1464664;89;21665;-85
2023/04/06 03:53:21;;;;;;;14.07;6.60;;;;;;;0.53;57.46;100264.58;1470604;88;21523;-85
2023/04/06 03:55:48;;;;;;;12.50;6.80;;;;;;;0.56;57.33;100263.56;1469103;88;21427;-86
2023/04/06 03:58:14;;;;;;;14.80;5.90;;;;;;;0.58;57.34;100268.23;1448955;89;21605;-87
2023/04/06 04:00:40;;;;;;;11.48;6.22;;;;;;;0.54;57.45;100268.84;1414553;91;21458;-90
2023/04/06 04:03:07;;;;;;;11.78;6.42;;;;;;;0.54;57.39;100264.10;1464312;88;21613;-84
2023/04/06 04:05:33;;;;;;;11.57;5.78;;;;;;;0.55;57.20;100263.20;1416664;92;21435;-84
2023/04/06 04:08:00;;;;;;;13.35;7.03;;;;;;;0.57;57.40;100274.34;1472469;88;21657;-86
2023/04/06 04:10:26;;;;;;;11.93;7.15;;;;;;;0.56;57.43;100270.08;1476675;89;21577;-85
2023/04/06 04:12:52;;;;;;;14.23;6.53;;;;;;;0.54;57.42;100277.95;1467023;88;21457;-85
2023/04/06 04:15:19;;;;;;;10.00;5.15;;;;;;;0.55;57.47;100280.13;1471838;88;21434;-86
2023/04/06 04:17:50;;;;;;;14.90;6.08;;;;;;;0.44;58.28;100286.77;1411173;92;21420;-83
2023/04/06 04:20:17;;;;;;;11.08;5.92;;;;;;;0.47;59.54;100284.92;1465325;88;21673;-85
2023/04/06 04:22:45;;;;;;;13.32;6.72;;;;;;;0.26;62.55;100296.92;1464608;88;21748;-87
2023/04/06 04:25:11;;;;;;;11.75;6.50;;;;;;;0.21;65.00;100290.66;1459823;89;21456;-86
2023/04/06 04:27:38;;;;;;;16.97;6.33;;;;;;;0.12;67.57;100294.23;1468233;88;21538;-86
2023/04/06 04:30:06;;;;;;;11.03;6.40;;;;;;;-0.22;70.34;100307.77;1413956;91;21494;-81
2023/04/06 04:32:32;;;;;;;15.88;5.83;;;;;;;-0.32;72.19;100309.99;1471729;88;21531;-85
2023/04/06 04:34:58;;;;;;;20.95;6.90;;;;;;;-0.41;73.22;100308.34;1444078;89;21619;-85
2023/04/06 04:37:25;;;;;;;22.02;6.08;;;;;;;-0.39;73.27;100301.31;1414000;91;21494;-85
2023/04/06 04:39:51;;;;;;;12.00;6.37;;;;;;;-0.44;74.10;100304.61;1474792;88;22034;-86
2023/04/06 04:42:18;;;;;;;11.70;6.65;;;;;;;-0.54;75.24;100302.97;1473016;88;21552;-85
2023/04/06 04:44:44;;;;;;;32.55;7.03;;;;;;;-0.61;76.05;100302.42;1423700;91;21740;-85
2023/04/06 04:47:11;;;;;;;10.63;5.12;;;;;;;-0.70;77.25;100308.09;1468395;88;21554;-85
2023/04/06 04:49:37;;;;;;;12.30;6.55;;;;;;;-0.85;78.76;100303.70;1463348;88;21586;-86
2023/04/06 04:52:03;;;;;;;12.73;6.78;;;;;;;-0.79;80.17;100305.98;1479589;88;21479;-86
2023/04/06 04:54:30;;;;;;;8.90;6.20;;;;;;;-0.89;81.47;100305.62;1429707;91;21935;-86
2023/04/06 04:56:56;;;;;;;12.82;7.05;;;;;;;-0.97;82.60;100301.27;1472989;88;21411;-86
2023/04/06 04:59:23;;;;;;;10.35;6.10;;;;;;;-0.87;83.79;100301.63;1432104;91;22200;-87
2023/04/06 05:01:49;;;;;;;18.32;6.67;;;;;;;-0.88;84.52;100301.26;1475228;88;21397;-88
2023/04/06 05:04:15;;;;;;;12.35;5.50;;;;;;;-1.00;85.62;100301.42;1473878;88;21517;-88
2023/04/06 05:06:42;;;;;;;14.15;7.62;;;;;;;-1.04;86.25;100305.91;1425578;91;22503;-87
2023/04/06 05:09:08;;;;;;;10.82;5.22;;;;;;;-1.01;85.70;100305.75;1472909;88;21736;-84
2023/04/06 05:11:35;;;;;;;10.78;6.65;;;;;;;-1.09;85.06;100301.85;1471652;88;22417;-85
2023/04/06 05:14:01;;;;;;;10.65;5.83;;;;;;;-1.06;85.58;100306.92;1475577;88;21501;-85
2023/04/06 05:16:27;;;;;;;11.90;6.53;;;;;;;-1.09;85.97;100310.52;1473991;88;21656;-85
